sensor_id;sensor_type;location;lat;lon;timestamp;P1;durP1;ratioP1;P2;durP2;ratioP2
11823;SDS011;5969;50.780;7.726;2023-02-14T00:02:07;9.88;;;8.40;;
11823;SDS011;5969;50.780;7.726;2023-02-14T00:04:34;14.48;;;8.77;;
11823;SDS011;5969;50.780;7.726;2023-02-14T00:07:02;12.45;;;8.23;;
11823;SDS011;5969;50.780;7.726;2023-02-14T00:09:30;10.75;;;8.45;;
11823;SDS011;5969;50.780;7.726;2023-02-14T00:11:57;12.02;;;7.95;;
11823;SDS011;5969;50.780;7.726;2023-02-14T00:14:24;10.50;;;8.23;;
11823;SDS011;5969;50.780;7.726;2023-02-14T00:17:09;9.68;;;8.00;;
11823;SDS011;5969;50.780;7.726;2023-02-14T00:19:36;10.07;;;7.68;;
11823;SDS011;5969;50.780;7.726;2023-02-14T00:22:03;8.57;;;7.20;;
11823;SDS011;5969;50.780;7.726;2023-02-14T00:24:30;9.27;;;8.25;;
11823;SDS011;5969;50.780;7.726;2023-02-14T00:26:57;8.70;;;7.10;;
11823;SDS011;5969;50.780;7.726;2023-02-14T00:29:25;10.95;;;7.90;;
11823;SDS011;5969;50.780;7.726;2023-02-14T00:31:53;9.90;;;7.75;;
11823;SDS011;5969;50.780;7.726;2023-02-14T00:34:22;10.13;;;7.70;;
11823;SDS011;5969;50.780;7.726;2023-02-14T00:36:48;10.52;;;7.93;;
11823;SDS011;5969;50.780;7.726;2023-02-14T00:39:16;10.13;;;7.65;;
11823;SDS011;5969;50.780;7.726;2023-02-14T00:41:43;10.93;;;8.45;;
11823;SDS011;5969;50.780;7.726;2023-02-14T00:44:10;10.63;;;8.25;;
11823;SDS011;5969;50.780;7.726;2023-02-14T00:46:38;10.02;;;8.65;;
11823;SDS011;5969;50.780;7.726;2023-02-14T00:49:05;11.90;;;8.82;;
11823;SDS011;5969;50.780;7.726;2023-02-14T00:51:33;10.25;;;8.25;;
11823;SDS011;5969;50.780;7.726;2023-02-14T00:54:00;11.27;;;8.32;;
11823;SDS011;5969;50.780;7.726;2023-02-14T00:56:27;12.60;;;8.25;;
11823;SDS011;5969;50.780;7.726;2023-02-14T00:58:54;8.93;;;7.70;;
11823;SDS011;5969;50.780;7.726;2023-02-14T01:01:20;10.57;;;8.30;;
11823;SDS011;5969;50.780;7.726;2023-02-14T01:03:47;9.50;;;7.45;;
11823;SDS011;5969;50.780;7.726;2023-02-14T01:06:14;9.88;;;7.65;;
11823;SDS011;5969;50.780;7.726;2023-02-14T01:08:42;10.45;;;7.55;;
11823;SDS011;5969;50.780;7.726;2023-02-14T01:11:10;9.93;;;8.05;;
11823;SDS011;5969;50.780;7.726;2023-02-14T01:13:38;11.95;;;8.32;;
11823;SDS011;5969;50.780;7.726;2023-02-14T01:16:06;10.25;;;7.90;;
11823;SDS011;5969;50.780;7.726;2023-02-14T01:18:35;11.13;;;8.27;;
11823;SDS011;5969;50.780;7.726;2023-02-14T01:21:12;8.65;;;7.43;;
11823;SDS011;5969;50.780;7.726;2023-02-14T01:23:41;10.23;;;8.25;;
11823;SDS011;5969;50.780;7.726;2023-02-14T01:26:10;10.07;;;8.45;;
11823;SDS011;5969;50.780;7.726;2023-02-14T01:28:37;10.32;;;8.10;;
11823;SDS011;5969;50.780;7.726;2023-02-14T01:31:05;9.38;;;7.30;;
11823;SDS011;5969;50.780;7.726;2023-02-14T01:33:33;9.35;;;7.25;;
11823;SDS011;5969;50.780;7.726;2023-02-14T01:36:00;9.95;;;7.78;;
11823;SDS011;5969;50.780;7.726;2023-02-14T01:38:27;9.10;;;7.20;;
11823;SDS011;5969;50.780;7.726;2023-02-14T01:40:55;11.15;;;8.10;;
11823;SDS011;5969;50.780;7.726;2023-02-14T01:43:22;10.63;;;7.75;;
11823;SDS011;5969;50.780;7.726;2023-02-14T01:45:50;10.40;;;7.80;;
11823;SDS011;5969;50.780;7.726;2023-02-14T01:48:17;9.63;;;7.70;;
11823;SDS011;5969;50.780;7.726;2023-02-14T01:50:46;10.32;;;7.93;;
11823;SDS011;5969;50.780;7.726;2023-02-14T01:53:15;10.85;;;8.00;;
11823;SDS011;5969;50.780;7.726;2023-02-14T01:55:45;9.25;;;7.63;;
11823;SDS011;5969;50.780;7.726;2023-02-14T01:58:17;10.40;;;8.10;;
11823;SDS011;5969;50.780;7.726;2023-02-14T02:00:49;8.73;;;7.18;;
11823;SDS011;5969;50.780;7.726;2023-02-14T02:03:22;10.15;;;8.30;;
11823;SDS011;5969;50.780;7.726;2023-02-14T02:05:51;11.27;;;8.02;;
11823;SDS011;5969;50.780;7.726;2023-02-14T02:08:22;12.18;;;8.02;;
11823;SDS011;5969;50.780;7.726;2023-02-14T02:10:49;9.88;;;7.95;;
11823;SDS011;5969;50.780;7.726;2023-02-14T02:13:18;10.20;;;8.45;;
11823;SDS011;5969;50.780;7.726;2023-02-14T02:15:49;10.10;;;8.75;;
11823;SDS011;5969;50.780;7.726;2023-02-14T02:18:25;10.48;;;8.32;;
11823;SDS011;5969;50.780;7.726;2023-02-14T02:21:05;8.55;;;7.60;;
11823;SDS011;5969;50.780;7.726;2023-02-14T02:30:10;11.65;;;7.60;;
11823;SDS011;5969;50.780;7.726;2023-02-14T02:33:07;10.15;;;7.63;;
11823;SDS011;5969;50.780;7.726;2023-02-14T02:39:09;9.32;;;7.20;;
11823;SDS011;5969;50.780;7.726;2023-02-14T02:42:00;11.05;;;8.18;;
11823;SDS011;5969;50.780;7.726;2023-02-14T02:44:37;9.93;;;7.13;;
11823;SDS011;5969;50.780;7.726;2023-02-14T02:47:12;10.57;;;8.13;;
11823;SDS011;5969;50.780;7.726;2023-02-14T02:49:44;8.85;;;7.35;;
11823;SDS011;5969;50.780;7.726;2023-02-14T02:52:38;10.85;;;7.63;;
11823;SDS011;5969;50.780;7.726;2023-02-14T02:55:29;8.55;;;7.15;;
11823;SDS011;5969;50.780;7.726;2023-02-14T02:58:18;10.45;;;7.78;;
11823;SDS011;5969;50.780;7.726;2023-02-14T03:00:47;10.35;;;8.05;;
11823;SDS011;5969;50.780;7.726;2023-02-14T03:03:15;11.02;;;8.07;;
11823;SDS011;5969;50.780;7.726;2023-02-14T03:06:01;10.88;;;8.07;;
11823;SDS011;5969;50.780;7.726;2023-02-14T03:08:30;9.98;;;7.80;;
11823;SDS011;5969;50.780;7.726;2023-02-14T03:10:57;10.57;;;7.55;;
11823;SDS011;5969;50.780;7.726;2023-02-14T03:13:29;10.02;;;8.15;;
11823;SDS011;5969;50.780;7.726;2023-02-14T03:16:19;10.05;;;8.13;;
11823;SDS011;5969;50.780;7.726;2023-02-14T03:19:03;10.23;;;7.50;;
11823;SDS011;5969;50.780;7.726;2023-02-14T03:21:43;11.60;;;7.93;;
11823;SDS011;5969;50.780;7.726;2023-02-14T03:24:20;11.85;;;7.88;;
11823;SDS011;5969;50.780;7.726;2023-02-14T03:26:55;10.82;;;8.45;;
11823;SDS011;5969;50.780;7.726;2023-02-14T03:29:30;10.95;;;8.27;;
11823;SDS011;5969;50.780;7.726;2023-02-14T03:32:10;13.25;;;8.50;;
11823;SDS011;5969;50.780;7.726;2023-02-14T03:34:44;12.93;;;8.85;;
11823;SDS011;5969;50.780;7.726;2023-02-14T03:37:19;8.65;;;7.50;;
11823;SDS011;5969;50.780;7.726;2023-02-14T03:39:52;11.27;;;7.80;;
11823;SDS011;5969;50.780;7.726;2023-02-14T03:42:25;10.43;;;8.50;;
11823;SDS011;5969;50.780;7.726;2023-02-14T03:44:56;12.50;;;8.68;;
11823;SDS011;5969;50.780;7.726;2023-02-14T03:47:27;13.65;;;8.73;;
11823;SDS011;5969;50.780;7.726;2023-02-14T03:49:58;9.40;;;7.85;;
11823;SDS011;5969;50.780;7.726;2023-02-14T03:52:27;12.18;;;8.55;;
11823;SDS011;5969;50.780;7.726;2023-02-14T03:54:57;10.32;;;8.40;;
11823;SDS011;5969;50.780;7.726;2023-02-14T03:57:27;11.02;;;8.80;;
11823;SDS011;5969;50.780;7.726;2023-02-14T03:59:58;13.05;;;8.45;;
11823;SDS011;5969;50.780;7.726;2023-02-14T04:02:26;10.40;;;7.80;;
11823;SDS011;5969;50.780;7.726;2023-02-14T04:04:58;12.50;;;9.13;;
11823;SDS011;5969;50.780;7.726;2023-02-14T04:07:27;9.23;;;7.88;;
11823;SDS011;5969;50.780;7.726;2023-02-14T04:09:54;9.30;;;7.97;;
11823;SDS011;5969;50.780;7.726;2023-02-14T04:12:22;10.40;;;8.57;;
11823;SDS011;5969;50.780;7.726;2023-02-14T04:14:52;11.02;;;8.15;;
11823;SDS011;5969;50.780;7.726;2023-02-14T04:17:19;10.50;;;8.13;;
11823;SDS011;5969;50.780;7.726;2023-02-14T04:20:03;10.82;;;7.78;;
11823;SDS011;5969;50.780;7.726;2023-02-14T04:22:31;11.15;;;8.65;;
11823;SDS011;5969;50.780;7.726;2023-02-14T04:24:58;11.15;;;8.90;;
11823;SDS011;5969;50.780;7.726;2023-02-14T04:27:26;11.27;;;9.45;;
11823;SDS011;5969;50.780;7.726;2023-02-14T04:29:53;12.80;;;9.63;;
11823;SDS011;5969;50.780;7.726;2023-02-14T04:32:20;11.52;;;8.27;;
11823;SDS011;5969;50.780;7.726;2023-02-14T04:34:48;11.50;;;9.02;;
11823;SDS011;5969;50.780;7.726;2023-02-14T04:37:16;11.63;;;9.23;;
11823;SDS011;5969;50.780;7.726;2023-02-14T04:39:44;12.50;;;9.27;;
11823;SDS011;5969;50.780;7.726;2023-02-14T04:42:10;12.32;;;9.10;;
11823;SDS011;5969;50.780;7.726;2023-02-14T04:44:39;12.95;;;9.93;;
11823;SDS011;5969;50.780;7.726;2023-02-14T04:47:06;10.45;;;8.68;;
11823;SDS011;5969;50.780;7.726;2023-02-14T04:49:33;12.80;;;8.18;;
11823;SDS011;5969;50.780;7.726;2023-02-14T04:52:00;9.77;;;7.40;;
11823;SDS011;5969;50.780;7.726;2023-02-14T04:54:27;8.57;;;7.03;;
11823;SDS011;5969;50.780;7.726;2023-02-14T04:56:54;9.38;;;7.45;;
11823;SDS011;5969;50.780;7.726;2023-02-14T04:59:21;10.00;;;8.27;;
11823;SDS011;5969;50.780;7.726;2023-02-14T05:01:49;12.02;;;9.02;;
11823;SDS011;5969;50.780;7.726;2023-02-14T05:04:16;10.52;;;8.68;;
11823;SDS011;5969;50.780;7.726;2023-02-14T05:06:43;13.18;;;8.82;;
11823;SDS011;5969;50.780;7.726;2023-02-14T05:09:10;10.18;;;6.90;;
11823;SDS011;5969;50.780;7.726;2023-02-14T05:11:37;10.20;;;7.90;;
11823;SDS011;5969;50.780;7.726;2023-02-14T05:14:04;9.32;;;7.60;;
11823;SDS011;5969;50.780;7.726;2023-02-14T05:16:30;10.05;;;8.07;;
11823;SDS011;5969;50.780;7.726;2023-02-14T05:18:58;14.88;;;9.18;;
11823;SDS011;5969;50.780;7.726;2023-02-14T05:21:25;13.15;;;9.60;;
11823;SDS011;5969;50.780;7.726;2023-02-14T05:23:52;12.85;;;9.77;;
11823;SDS011;5969;50.780;7.726;2023-02-14T05:26:19;12.60;;;9.75;;
11823;SDS011;5969;50.780;7.726;2023-02-14T05:28:46;14.55;;;10.15;;
11823;SDS011;5969;50.780;7.726;2023-02-14T05:31:12;12.45;;;9.40;;
11823;SDS011;5969;50.780;7.726;2023-02-14T05:33:39;13.00;;;9.68;;
11823;SDS011;5969;50.780;7.726;2023-02-14T05:36:08;12.30;;;9.10;;
11823;SDS011;5969;50.780;7.726;2023-02-14T05:38:35;14.18;;;9.75;;
11823;SDS011;5969;50.780;7.726;2023-02-14T05:41:02;11.80;;;9.55;;
11823;SDS011;5969;50.780;7.726;2023-02-14T05:43:29;12.63;;;9.25;;
11823;SDS011;5969;50.780;7.726;2023-02-14T05:45:56;14.48;;;9.63;;
11823;SDS011;5969;50.780;7.726;2023-02-14T05:48:22;12.30;;;9.98;;
11823;SDS011;5969;50.780;7.726;2023-02-14T05:50:50;12.98;;;9.82;;
11823;SDS011;5969;50.780;7.726;2023-02-14T05:53:18;15.18;;;9.63;;
11823;SDS011;5969;50.780;7.726;2023-02-14T05:55:45;14.13;;;9.48;;
11823;SDS011;5969;50.780;7.726;2023-02-14T05:58:12;13.63;;;10.23;;
11823;SDS011;5969;50.780;7.726;2023-02-14T06:00:39;11.18;;;7.88;;
11823;SDS011;5969;50.780;7.726;2023-02-14T06:03:06;11.07;;;7.93;;
11823;SDS011;5969;50.780;7.726;2023-02-14T06:05:32;10.65;;;7.45;;
11823;SDS011;5969;50.780;7.726;2023-02-14T06:07:59;9.50;;;8.00;;
11823;SDS011;5969;50.780;7.726;2023-02-14T06:10:27;8.77;;;7.05;;
11823;SDS011;5969;50.780;7.726;2023-02-14T06:12:54;11.00;;;7.60;;
11823;SDS011;5969;50.780;7.726;2023-02-14T06:15:21;10.05;;;7.47;;
11823;SDS011;5969;50.780;7.726;2023-02-14T06:17:51;10.52;;;8.40;;
11823;SDS011;5969;50.780;7.726;2023-02-14T06:20:18;10.60;;;7.97;;
11823;SDS011;5969;50.780;7.726;2023-02-14T06:22:46;13.75;;;9.38;;
11823;SDS011;5969;50.780;7.726;2023-02-14T06:25:12;12.27;;;9.15;;
11823;SDS011;5969;50.780;7.726;2023-02-14T06:27:40;11.90;;;8.90;;
11823;SDS011;5969;50.780;7.726;2023-02-14T06:30:08;12.65;;;9.60;;
11823;SDS011;5969;50.780;7.726;2023-02-14T06:32:35;14.20;;;10.07;;
11823;SDS011;5969;50.780;7.726;2023-02-14T06:35:02;14.70;;;9.63;;
11823;SDS011;5969;50.780;7.726;2023-02-14T06:37:29;13.68;;;9.40;;
11823;SDS011;5969;50.780;7.726;2023-02-14T06:39:56;15.45;;;10.63;;
11823;SDS011;5969;50.780;7.726;2023-02-14T06:42:23;13.55;;;9.20;;
11823;SDS011;5969;50.780;7.726;2023-02-14T06:44:52;11.25;;;9.32;;
11823;SDS011;5969;50.780;7.726;2023-02-14T06:47:18;22.50;;;16.77;;
11823;SDS011;5969;50.780;7.726;2023-02-14T06:49:45;20.88;;;14.75;;
11823;SDS011;5969;50.780;7.726;2023-02-14T06:52:12;18.75;;;12.00;;
11823;SDS011;5969;50.780;7.726;2023-02-14T06:54:39;14.25;;;10.35;;
11823;SDS011;5969;50.780;7.726;2023-02-14T06:57:05;16.55;;;10.05;;
11823;SDS011;5969;50.780;7.726;2023-02-14T06:59:32;15.05;;;10.27;;
11823;SDS011;5969;50.780;7.726;2023-02-14T07:02:00;16.10;;;10.98;;
11823;SDS011;5969;50.780;7.726;2023-02-14T07:04:27;13.85;;;9.93;;
11823;SDS011;5969;50.780;7.726;2023-02-14T07:06:54;17.40;;;11.43;;
11823;SDS011;5969;50.780;7.726;2023-02-14T07:09:22;19.02;;;11.45;;
11823;SDS011;5969;50.780;7.726;2023-02-14T07:11:49;17.23;;;11.80;;
11823;SDS011;5969;50.780;7.726;2023-02-14T07:14:15;15.38;;;11.63;;
11823;SDS011;5969;50.780;7.726;2023-02-14T07:16:42;17.45;;;11.93;;
11823;SDS011;5969;50.780;7.726;2023-02-14T07:19:10;17.08;;;12.20;;
11823;SDS011;5969;50.780;7.726;2023-02-14T07:21:37;18.05;;;12.60;;
11823;SDS011;5969;50.780;7.726;2023-02-14T07:24:04;22.35;;;15.82;;
11823;SDS011;5969;50.780;7.726;2023-02-14T07:26:31;19.50;;;12.70;;
11823;SDS011;5969;50.780;7.726;2023-02-14T07:28:58;21.73;;;13.82;;
11823;SDS011;5969;50.780;7.726;2023-02-14T07:31:25;18.30;;;12.80;;
11823;SDS011;5969;50.780;7.726;2023-02-14T07:33:51;19.70;;;11.98;;
11823;SDS011;5969;50.780;7.726;2023-02-14T07:36:19;17.58;;;12.77;;
11823;SDS011;5969;50.780;7.726;2023-02-14T07:38:46;20.42;;;12.70;;
11823;SDS011;5969;50.780;7.726;2023-02-14T07:41:13;19.95;;;13.50;;
11823;SDS011;5969;50.780;7.726;2023-02-14T07:43:40;20.52;;;13.90;;
11823;SDS011;5969;50.780;7.726;2023-02-14T07:46:06;19.00;;;13.23;;
11823;SDS011;5969;50.780;7.726;2023-02-14T07:48:33;18.42;;;12.82;;
11823;SDS011;5969;50.780;7.726;2023-02-14T07:51:00;18.13;;;12.63;;
11823;SDS011;5969;50.780;7.726;2023-02-14T07:53:29;18.15;;;12.90;;
11823;SDS011;5969;50.780;7.726;2023-02-14T07:55:56;17.10;;;12.52;;
11823;SDS011;5969;50.780;7.726;2023-02-14T07:58:22;20.63;;;13.63;;
11823;SDS011;5969;50.780;7.726;2023-02-14T08:00:49;20.75;;;14.38;;
11823;SDS011;5969;50.780;7.726;2023-02-14T08:03:16;19.35;;;13.30;;
11823;SDS011;5969;50.780;7.726;2023-02-14T08:05:43;18.13;;;12.52;;
11823;SDS011;5969;50.780;7.726;2023-02-14T08:08:20;20.20;;;13.43;;
11823;SDS011;5969;50.780;7.726;2023-02-14T08:10:50;19.40;;;13.73;;
11823;SDS011;5969;50.780;7.726;2023-02-14T08:13:16;18.50;;;12.00;;
11823;SDS011;5969;50.780;7.726;2023-02-14T08:15:42;18.95;;;13.50;;
11823;SDS011;5969;50.780;7.726;2023-02-14T08:18:26;18.85;;;13.63;;
11823;SDS011;5969;50.780;7.726;2023-02-14T08:20:53;21.65;;;14.00;;
11823;SDS011;5969;50.780;7.726;2023-02-14T08:23:20;19.58;;;13.65;;
11823;SDS011;5969;50.780;7.726;2023-02-14T08:25:48;20.27;;;13.85;;
11823;SDS011;5969;50.780;7.726;2023-02-14T08:28:17;19.23;;;13.82;;
11823;SDS011;5969;50.780;7.726;2023-02-14T08:30:45;19.80;;;14.35;;
11823;SDS011;5969;50.780;7.726;2023-02-14T08:33:12;21.38;;;15.07;;
11823;SDS011;5969;50.780;7.726;2023-02-14T08:35:39;22.38;;;15.85;;
11823;SDS011;5969;50.780;7.726;2023-02-14T08:38:06;19.92;;;14.93;;
11823;SDS011;5969;50.780;7.726;2023-02-14T08:40:33;23.90;;;16.27;;
11823;SDS011;5969;50.780;7.726;2023-02-14T08:43:02;23.98;;;14.60;;
11823;SDS011;5969;50.780;7.726;2023-02-14T08:45:29;21.48;;;14.98;;
11823;SDS011;5969;50.780;7.726;2023-02-14T08:47:59;19.35;;;15.10;;
11823;SDS011;5969;50.780;7.726;2023-02-14T08:50:27;19.70;;;13.90;;
11823;SDS011;5969;50.780;7.726;2023-02-14T08:52:54;21.75;;;14.38;;
11823;SDS011;5969;50.780;7.726;2023-02-14T08:55:20;20.48;;;14.82;;
11823;SDS011;5969;50.780;7.726;2023-02-14T08:57:47;18.58;;;13.55;;
11823;SDS011;5969;50.780;7.726;2023-02-14T09:00:16;21.63;;;14.43;;
11823;SDS011;5969;50.780;7.726;2023-02-14T09:02:43;19.98;;;14.00;;
11823;SDS011;5969;50.780;7.726;2023-02-14T09:05:10;20.08;;;14.07;;
11823;SDS011;5969;50.780;7.726;2023-02-14T09:07:37;21.23;;;14.00;;
11823;SDS011;5969;50.780;7.726;2023-02-14T09:10:04;20.58;;;14.23;;
11823;SDS011;5969;50.780;7.726;2023-02-14T09:12:32;19.73;;;13.55;;
11823;SDS011;5969;50.780;7.726;2023-02-14T09:14:58;21.85;;;14.48;;
11823;SDS011;5969;50.780;7.726;2023-02-14T09:17:27;18.65;;;13.60;;
11823;SDS011;5969;50.780;7.726;2023-02-14T09:19:54;21.85;;;14.02;;
11823;SDS011;5969;50.780;7.726;2023-02-14T09:22:21;19.25;;;13.57;;
11823;SDS011;5969;50.780;7.726;2023-02-14T09:24:48;21.15;;;14.75;;
11823;SDS011;5969;50.780;7.726;2023-02-14T09:27:15;17.95;;;14.05;;
11823;SDS011;5969;50.780;7.726;2023-02-14T09:29:42;20.48;;;14.10;;
11823;SDS011;5969;50.780;7.726;2023-02-14T09:32:08;19.90;;;14.88;;
11823;SDS011;5969;50.780;7.726;2023-02-14T09:34:37;19.75;;;13.98;;
11823;SDS011;5969;50.780;7.726;2023-02-14T09:37:03;18.55;;;13.73;;
11823;SDS011;5969;50.780;7.726;2023-02-14T09:39:30;18.52;;;13.27;;
11823;SDS011;5969;50.780;7.726;2023-02-14T09:42:02;20.08;;;14.40;;
11823;SDS011;5969;50.780;7.726;2023-02-14T09:44:40;21.42;;;14.55;;
11823;SDS011;5969;50.780;7.726;2023-02-14T09:47:11;17.27;;;12.93;;
11823;SDS011;5969;50.780;7.726;2023-02-14T09:49:45;19.00;;;14.13;;
11823;SDS011;5969;50.780;7.726;2023-02-14T09:52:14;20.23;;;14.93;;
11823;SDS011;5969;50.780;7.726;2023-02-14T09:54:45;19.38;;;14.25;;
11823;SDS011;5969;50.780;7.726;2023-02-14T09:57:16;21.95;;;14.60;;
11823;SDS011;5969;50.780;7.726;2023-02-14T09:59:50;19.80;;;15.38;;
11823;SDS011;5969;50.780;7.726;2023-02-14T10:02:29;17.67;;;13.85;;
11823;SDS011;5969;50.780;7.726;2023-02-14T10:05:08;18.33;;;14.38;;
11823;SDS011;5969;50.780;7.726;2023-02-14T10:07:39;17.33;;;14.30;;
11823;SDS011;5969;50.780;7.726;2023-02-14T10:10:18;17.63;;;13.85;;
11823;SDS011;5969;50.780;7.726;2023-02-14T10:12:49;20.38;;;14.18;;
11823;SDS011;5969;50.780;7.726;2023-02-14T10:15:21;16.45;;;12.82;;
11823;SDS011;5969;50.780;7.726;2023-02-14T10:17:52;15.60;;;12.90;;
11823;SDS011;5969;50.780;7.726;2023-02-14T10:20:26;17.85;;;13.18;;
11823;SDS011;5969;50.780;7.726;2023-02-14T10:22:59;16.58;;;12.77;;
11823;SDS011;5969;50.780;7.726;2023-02-14T10:25:29;17.98;;;13.90;;
11823;SDS011;5969;50.780;7.726;2023-02-14T10:28:02;19.35;;;14.05;;
11823;SDS011;5969;50.780;7.726;2023-02-14T10:30:33;15.13;;;12.80;;
11823;SDS011;5969;50.780;7.726;2023-02-14T10:33:05;16.58;;;13.68;;
11823;SDS011;5969;50.780;7.726;2023-02-14T10:35:43;18.23;;;12.85;;
11823;SDS011;5969;50.780;7.726;2023-02-14T10:38:16;15.85;;;12.30;;
11823;SDS011;5969;50.780;7.726;2023-02-14T10:41:02;17.30;;;13.00;;
11823;SDS011;5969;50.780;7.726;2023-02-14T10:43:35;20.73;;;12.75;;
11823;SDS011;5969;50.780;7.726;2023-02-14T10:46:09;19.15;;;12.77;;
11823;SDS011;5969;50.780;7.726;2023-02-14T10:48:46;16.23;;;12.82;;
11823;SDS011;5969;50.780;7.726;2023-02-14T10:51:22;13.63;;;10.88;;
11823;SDS011;5969;50.780;7.726;2023-02-14T10:53:57;17.55;;;12.38;;
11823;SDS011;5969;50.780;7.726;2023-02-14T10:56:34;12.60;;;10.05;;
11823;SDS011;5969;50.780;7.726;2023-02-14T10:59:07;13.80;;;11.18;;
11823;SDS011;5969;50.780;7.726;2023-02-14T11:01:42;15.05;;;10.90;;
11823;SDS011;5969;50.780;7.726;2023-02-14T11:04:09;13.70;;;10.13;;
11823;SDS011;5969;50.780;7.726;2023-02-14T11:06:39;11.20;;;9.05;;
11823;SDS011;5969;50.780;7.726;2023-02-14T11:09:08;11.88;;;9.68;;
11823;SDS011;5969;50.780;7.726;2023-02-14T11:11:37;12.18;;;9.23;;
11823;SDS011;5969;50.780;7.726;2023-02-14T11:14:19;12.13;;;8.65;;
11823;SDS011;5969;50.780;7.726;2023-02-14T11:16:51;9.57;;;8.52;;
11823;SDS011;5969;50.780;7.726;2023-02-14T11:19:19;9.82;;;8.40;;
11823;SDS011;5969;50.780;7.726;2023-02-14T11:21:52;9.23;;;7.75;;
11823;SDS011;5969;50.780;7.726;2023-02-14T11:24:25;10.95;;;8.35;;
11823;SDS011;5969;50.780;7.726;2023-02-14T11:26:54;8.35;;;6.63;;
11823;SDS011;5969;50.780;7.726;2023-02-14T11:29:25;9.95;;;7.63;;
11823;SDS011;5969;50.780;7.726;2023-02-14T11:31:54;8.50;;;7.18;;
11823;SDS011;5969;50.780;7.726;2023-02-14T11:34:24;9.77;;;7.00;;
11823;SDS011;5969;50.780;7.726;2023-02-14T11:37:01;10.73;;;7.80;;
11823;SDS011;5969;50.780;7.726;2023-02-14T11:39:40;7.90;;;7.10;;
11823;SDS011;5969;50.780;7.726;2023-02-14T11:42:08;8.60;;;7.70;;
11823;SDS011;5969;50.780;7.726;2023-02-14T11:44:37;9.10;;;7.38;;
11823;SDS011;5969;50.780;7.726;2023-02-14T11:47:32;7.57;;;6.88;;
11823;SDS011;5969;50.780;7.726;2023-02-14T11:50:02;7.53;;;6.82;;
11823;SDS011;5969;50.780;7.726;2023-02-14T11:52:32;8.88;;;7.43;;
11823;SDS011;5969;50.780;7.726;2023-02-14T11:55:20;7.68;;;6.97;;
11823;SDS011;5969;50.780;7.726;2023-02-14T11:57:50;7.85;;;7.10;;
11823;SDS011;5969;50.780;7.726;2023-02-14T12:00:18;7.35;;;6.65;;
11823;SDS011;5969;50.780;7.726;2023-02-14T12:02:47;7.53;;;6.82;;
11823;SDS011;5969;50.780;7.726;2023-02-14T12:05:16;8.02;;;6.57;;
11823;SDS011;5969;50.780;7.726;2023-02-14T12:07:46;7.28;;;6.68;;
11823;SDS011;5969;50.780;7.726;2023-02-14T12:10:26;7.85;;;7.15;;
11823;SDS011;5969;50.780;7.726;2023-02-14T12:12:55;7.60;;;6.93;;
11823;SDS011;5969;50.780;7.726;2023-02-14T12:15:25;7.57;;;6.95;;
11823;SDS011;5969;50.780;7.726;2023-02-14T12:21:05;7.15;;;6.55;;
11823;SDS011;5969;50.780;7.726;2023-02-14T12:23:44;7.40;;;6.70;;
11823;SDS011;5969;50.780;7.726;2023-02-14T12:26:16;7.00;;;6.40;;
11823;SDS011;5969;50.780;7.726;2023-02-14T12:28:54;7.43;;;6.75;;
11823;SDS011;5969;50.780;7.726;2023-02-14T12:31:28;6.70;;;6.00;;
11823;SDS011;5969;50.780;7.726;2023-02-14T12:33:55;6.68;;;6.07;;
11823;SDS011;5969;50.780;7.726;2023-02-14T12:36:26;6.50;;;5.90;;
11823;SDS011;5969;50.780;7.726;2023-02-14T12:39:11;6.18;;;5.68;;
11823;SDS011;5969;50.780;7.726;2023-02-14T12:41:47;6.57;;;5.97;;
11823;SDS011;5969;50.780;7.726;2023-02-14T12:44:24;7.35;;;6.18;;
11823;SDS011;5969;50.780;7.726;2023-02-14T12:47:06;6.47;;;5.88;;
11823;SDS011;5969;50.780;7.726;2023-02-14T12:49:51;7.13;;;6.53;;
11823;SDS011;5969;50.780;7.726;2023-02-14T12:52:48;7.10;;;6.50;;
11823;SDS011;5969;50.780;7.726;2023-02-14T12:55:32;6.68;;;6.07;;
11823;SDS011;5969;50.780;7.726;2023-02-14T12:58:10;7.45;;;6.78;;
11823;SDS011;5969;50.780;7.726;2023-02-14T13:00:49;7.90;;;7.00;;
11823;SDS011;5969;50.780;7.726;2023-02-14T13:03:47;6.55;;;5.75;;
11823;SDS011;5969;50.780;7.726;2023-02-14T13:06:23;6.97;;;6.38;;
11823;SDS011;5969;50.780;7.726;2023-02-14T13:09:10;7.65;;;6.95;;
11823;SDS011;5969;50.780;7.726;2023-02-14T13:11:46;7.60;;;6.90;;
11823;SDS011;5969;50.780;7.726;2023-02-14T13:14:27;7.72;;;6.95;;
11823;SDS011;5969;50.780;7.726;2023-02-14T13:17:06;7.35;;;6.65;;
11823;SDS011;5969;50.780;7.726;2023-02-14T13:19:43;7.72;;;6.78;;
11823;SDS011;5969;50.780;7.726;2023-02-14T13:22:19;7.30;;;6.60;;
11823;SDS011;5969;50.780;7.726;2023-02-14T13:24:49;8.00;;;7.25;;
11823;SDS011;5969;50.780;7.726;2023-02-14T13:27:22;8.68;;;7.47;;
11823;SDS011;5969;50.780;7.726;2023-02-14T13:29:53;8.07;;;7.15;;
11823;SDS011;5969;50.780;7.726;2023-02-14T13:32:23;7.70;;;6.78;;
11823;SDS011;5969;50.780;7.726;2023-02-14T13:34:53;7.88;;;7.07;;
11823;SDS011;5969;50.780;7.726;2023-02-14T13:37:22;7.20;;;6.50;;
11823;SDS011;5969;50.780;7.726;2023-02-14T13:39:52;8.10;;;7.13;;
11823;SDS011;5969;50.780;7.726;2023-02-14T13:48:28;6.90;;;6.22;;
11823;SDS011;5969;50.780;7.726;2023-02-14T13:50:56;7.22;;;6.07;;
11823;SDS011;5969;50.780;7.726;2023-02-14T13:53:33;8.18;;;6.72;;
11823;SDS011;5969;50.780;7.726;2023-02-14T13:56:03;8.57;;;7.60;;
11823;SDS011;5969;50.780;7.726;2023-02-14T13:58:53;7.70;;;6.40;;
11823;SDS011;5969;50.780;7.726;2023-02-14T14:01:29;7.70;;;6.80;;
11823;SDS011;5969;50.780;7.726;2023-02-14T14:03:58;8.18;;;7.30;;
11823;SDS011;5969;50.780;7.726;2023-02-14T14:06:26;6.80;;;6.10;;
11823;SDS011;5969;50.780;7.726;2023-02-14T14:08:54;7.65;;;6.95;;
11823;SDS011;5969;50.780;7.726;2023-02-14T14:14:32;7.38;;;6.68;;
11823;SDS011;5969;50.780;7.726;2023-02-14T14:17:03;7.00;;;6.30;;
11823;SDS011;5969;50.780;7.726;2023-02-14T14:19:45;7.22;;;6.53;;
11823;SDS011;5969;50.780;7.726;2023-02-14T14:22:13;8.57;;;7.40;;
11823;SDS011;5969;50.780;7.726;2023-02-14T14:24:49;7.53;;;6.72;;
11823;SDS011;5969;50.780;7.726;2023-02-14T14:27:24;7.30;;;6.60;;
11823;SDS011;5969;50.780;7.726;2023-02-14T14:29:55;7.50;;;6.75;;
11823;SDS011;5969;50.780;7.726;2023-02-14T14:32:25;7.85;;;6.82;;
11823;SDS011;5969;50.780;7.726;2023-02-14T14:34:54;7.28;;;6.65;;
11823;SDS011;5969;50.780;7.726;2023-02-14T14:37:23;10.35;;;6.80;;
11823;SDS011;5969;50.780;7.726;2023-02-14T14:39:53;8.40;;;7.50;;
11823;SDS011;5969;50.780;7.726;2023-02-14T14:42:22;8.40;;;7.35;;
11823;SDS011;5969;50.780;7.726;2023-02-14T14:44:50;8.00;;;7.20;;
11823;SDS011;5969;50.780;7.726;2023-02-14T14:47:21;8.38;;;7.57;;
11823;SDS011;5969;50.780;7.726;2023-02-14T14:50:05;7.85;;;7.05;;
11823;SDS011;5969;50.780;7.726;2023-02-14T14:52:51;8.38;;;7.57;;
11823;SDS011;5969;50.780;7.726;2023-02-14T14:55:35;7.78;;;6.72;;
11823;SDS011;5969;50.780;7.726;2023-02-14T14:58:10;8.23;;;7.20;;
11823;SDS011;5969;50.780;7.726;2023-02-14T15:01:27;9.50;;;7.00;;
11823;SDS011;5969;50.780;7.726;2023-02-14T15:04:10;7.53;;;6.82;;
11823;SDS011;5969;50.780;7.726;2023-02-14T15:06:44;8.23;;;7.40;;
11823;SDS011;5969;50.780;7.726;2023-02-14T15:09:15;7.97;;;7.13;;
11823;SDS011;5969;50.780;7.726;2023-02-14T15:11:51;7.72;;;7.03;;
11823;SDS011;5969;50.780;7.726;2023-02-14T15:14:41;8.02;;;7.22;;
11823;SDS011;5969;50.780;7.726;2023-02-14T15:17:17;9.93;;;7.25;;
11823;SDS011;5969;50.780;7.726;2023-02-14T15:19:52;8.48;;;7.13;;
11823;SDS011;5969;50.780;7.726;2023-02-14T15:22:32;7.90;;;7.00;;
11823;SDS011;5969;50.780;7.726;2023-02-14T15:25:15;8.82;;;7.88;;
11823;SDS011;5969;50.780;7.726;2023-02-14T15:27:55;8.48;;;7.68;;
11823;SDS011;5969;50.780;7.726;2023-02-14T15:30:33;9.05;;;7.55;;
11823;SDS011;5969;50.780;7.726;2023-02-14T15:33:19;8.02;;;7.18;;
11823;SDS011;5969;50.780;7.726;2023-02-14T15:36:21;8.65;;;7.75;;